sensor_id;sensor_type;location;lat;lon;timestamp;P1;durP1;ratioP1;P2;durP2;ratioP2
63218;SDS011;49320;52.512;13.448;2023-06-04T00:02:24;3.05;;;2.13;;
63218;SDS011;49320;52.512;13.448;2023-06-04T00:04:52;6.03;;;2.22;;
63218;SDS011;49320;52.512;13.448;2023-06-04T00:07:19;2.25;;;1.70;;
63218;SDS011;49320;52.512;13.448;2023-06-04T00:09:46;3.58;;;1.90;;
63218;SDS011;49320;52.512;13.448;2023-06-04T00:12:14;3.13;;;2.03;;
63218;SDS011;49320;52.512;13.448;2023-06-04T00:14:41;2.30;;;1.58;;
63218;SDS011;49320;52.512;13.448;2023-06-04T00:17:09;3.35;;;1.92;;
63218;SDS011;49320;52.512;13.448;2023-06-04T00:19:39;2.97;;;1.90;;
63218;SDS011;49320;52.512;13.448;2023-06-04T00:22:07;2.33;;;1.50;;
63218;SDS011;49320;52.512;13.448;2023-06-04T00:24:35;1.65;;;1.35;;
63218;SDS011;49320;52.512;13.448;2023-06-04T00:27:04;2.85;;;1.40;;
63218;SDS011;49320;52.512;13.448;2023-06-04T00:29:33;2.22;;;1.60;;
63218;SDS011;49320;52.512;13.448;2023-06-04T00:32:00;3.65;;;1.33;;
63218;SDS011;49320;52.512;13.448;2023-06-04T00:34:27;2.70;;;1.70;;
63218;SDS011;49320;52.512;13.448;2023-06-04T00:36:54;2.53;;;1.40;;
63218;SDS011;49320;52.512;13.448;2023-06-04T00:39:21;3.47;;;1.55;;
63218;SDS011;49320;52.512;13.448;2023-06-04T00:41:48;2.25;;;1.30;;
63218;SDS011;49320;52.512;13.448;2023-06-04T00:44:15;1.88;;;1.23;;
63218;SDS011;49320;52.512;13.448;2023-06-04T00:46:42;1.48;;;1.30;;
63218;SDS011;49320;52.512;13.448;2023-06-04T00:49:11;7.28;;;1.90;;
63218;SDS011;49320;52.512;13.448;2023-06-04T00:51:38;1.98;;;1.30;;
63218;SDS011;49320;52.512;13.448;2023-06-04T00:54:06;3.17;;;1.48;;
63218;SDS011;49320;52.512;13.448;2023-06-04T00:56:36;1.58;;;1.20;;
63218;SDS011;49320;52.512;13.448;2023-06-04T00:59:06;2.67;;;1.63;;
63218;SDS011;49320;52.512;13.448;2023-06-04T01:04:20;1.45;;;1.00;;
63218;SDS011;49320;52.512;13.448;2023-06-04T01:07:06;1.75;;;1.20;;
63218;SDS011;49320;52.512;13.448;2023-06-04T01:09:36;2.33;;;1.33;;
63218;SDS011;49320;52.512;13.448;2023-06-04T01:12:04;1.38;;;0.98;;
63218;SDS011;49320;52.512;13.448;2023-06-04T01:14:32;1.55;;;1.17;;
63218;SDS011;49320;52.512;13.448;2023-06-04T01:17:07;2.05;;;1.25;;
63218;SDS011;49320;52.512;13.448;2023-06-04T01:25:40;1.77;;;1.23;;
63218;SDS011;49320;52.512;13.448;2023-06-04T01:28:11;1.55;;;1.33;;
63218;SDS011;49320;52.512;13.448;2023-06-04T01:30:40;2.28;;;1.73;;
63218;SDS011;49320;52.512;13.448;2023-06-04T01:33:12;2.08;;;1.73;;
63218;SDS011;49320;52.512;13.448;2023-06-04T01:35:43;1.92;;;1.30;;
63218;SDS011;49320;52.512;13.448;2023-06-04T01:38:10;1.98;;;1.10;;
63218;SDS011;49320;52.512;13.448;2023-06-04T01:40:38;1.80;;;1.30;;
63218;SDS011;49320;52.512;13.448;2023-06-04T01:43:05;1.55;;;1.15;;
63218;SDS011;49320;52.512;13.448;2023-06-04T01:45:32;1.38;;;1.13;;
63218;SDS011;49320;52.512;13.448;2023-06-04T01:48:01;2.17;;;1.27;;
63218;SDS011;49320;52.512;13.448;2023-06-04T01:50:29;2.05;;;1.17;;
63218;SDS011;49320;52.512;13.448;2023-06-04T01:52:56;2.67;;;1.23;;
63218;SDS011;49320;52.512;13.448;2023-06-04T01:55:24;2.42;;;1.33;;
63218;SDS011;49320;52.512;13.448;2023-06-04T01:57:51;2.22;;;1.30;;
63218;SDS011;49320;52.512;13.448;2023-06-04T02:00:18;1.80;;;1.15;;
63218;SDS011;49320;52.512;13.448;2023-06-04T02:02:46;2.45;;;1.30;;
63218;SDS011;49320;52.512;13.448;2023-06-04T02:05:16;2.45;;;1.42;;
63218;SDS011;49320;52.512;13.448;2023-06-04T02:07:43;2.25;;;1.35;;
63218;SDS011;49320;52.512;13.448;2023-06-04T02:10:12;1.45;;;1.05;;
63218;SDS011;49320;52.512;13.448;2023-06-04T02:12:55;2.75;;;1.50;;
63218;SDS011;49320;52.512;13.448;2023-06-04T02:15:31;2.28;;;1.30;;
63218;SDS011;49320;52.512;13.448;2023-06-04T02:17:59;1.65;;;1.40;;
63218;SDS011;49320;52.512;13.448;2023-06-04T02:20:44;4.03;;;1.30;;
63218;SDS011;49320;52.512;13.448;2023-06-04T02:23:12;2.58;;;1.48;;
63218;SDS011;49320;52.512;13.448;2023-06-04T02:25:40;1.95;;;1.30;;
63218;SDS011;49320;52.512;13.448;2023-06-04T02:28:10;2.40;;;1.30;;
63218;SDS011;49320;52.512;13.448;2023-06-04T02:30:38;1.90;;;1.40;;
63218;SDS011;49320;52.512;13.448;2023-06-04T02:33:05;3.05;;;1.15;;
63218;SDS011;49320;52.512;13.448;2023-06-04T02:35:32;1.98;;;1.20;;
63218;SDS011;49320;52.512;13.448;2023-06-04T02:37:59;2.03;;;1.20;;
63218;SDS011;49320;52.512;13.448;2023-06-04T02:40:27;3.55;;;1.25;;
63218;SDS011;49320;52.512;13.448;2023-06-04T02:42:55;1.67;;;1.10;;
63218;SDS011;49320;52.512;13.448;2023-06-04T02:45:22;4.85;;;1.33;;
63218;SDS011;49320;52.512;13.448;2023-06-04T02:47:51;3.60;;;1.17;;
63218;SDS011;49320;52.512;13.448;2023-06-04T02:50:18;2.25;;;1.30;;
63218;SDS011;49320;52.512;13.448;2023-06-04T02:52:45;2.22;;;1.30;;
63218;SDS011;49320;52.512;13.448;2023-06-04T02:55:12;2.45;;;1.08;;
63218;SDS011;49320;52.512;13.448;2023-06-04T02:57:40;2.20;;;1.33;;
63218;SDS011;49320;52.512;13.448;2023-06-04T03:00:11;3.05;;;1.58;;
63218;SDS011;49320;52.512;13.448;2023-06-04T03:02:44;5.78;;;1.70;;
63218;SDS011;49320;52.512;13.448;2023-06-04T03:05:14;7.43;;;1.60;;
63218;SDS011;49320;52.512;13.448;2023-06-04T03:07:45;2.47;;;1.10;;
63218;SDS011;49320;52.512;13.448;2023-06-04T03:10:13;1.98;;;1.00;;
63218;SDS011;49320;52.512;13.448;2023-06-04T03:12:41;1.42;;;1.00;;
63218;SDS011;49320;52.512;13.448;2023-06-04T03:15:09;2.03;;;1.10;;
63218;SDS011;49320;52.512;13.448;2023-06-04T03:17:36;2.28;;;1.33;;
63218;SDS011;49320;52.512;13.448;2023-06-04T03:20:04;2.47;;;1.42;;
63218;SDS011;49320;52.512;13.448;2023-06-04T03:22:33;2.05;;;1.38;;
63218;SDS011;49320;52.512;13.448;2023-06-04T03:25:02;1.83;;;1.35;;
63218;SDS011;49320;52.512;13.448;2023-06-04T03:27:30;4.45;;;1.50;;
63218;SDS011;49320;52.512;13.448;2023-06-04T03:29:58;4.25;;;1.50;;
63218;SDS011;49320;52.512;13.448;2023-06-04T03:32:25;2.85;;;1.60;;
63218;SDS011;49320;52.512;13.448;2023-06-04T03:34:52;3.05;;;1.27;;
63218;SDS011;49320;52.512;13.448;2023-06-04T03:37:19;2.20;;;1.27;;
63218;SDS011;49320;52.512;13.448;2023-06-04T03:39:46;4.38;;;1.70;;
63218;SDS011;49320;52.512;13.448;2023-06-04T03:42:12;1.80;;;1.40;;
63218;SDS011;49320;52.512;13.448;2023-06-04T03:44:39;2.42;;;1.40;;
63218;SDS011;49320;52.512;13.448;2023-06-04T03:47:06;2.85;;;1.30;;
63218;SDS011;49320;52.512;13.448;2023-06-04T03:49:33;2.00;;;1.40;;
63218;SDS011;49320;52.512;13.448;2023-06-04T03:52:00;2.03;;;1.52;;
63218;SDS011;49320;52.512;13.448;2023-06-04T03:54:27;2.42;;;1.70;;
63218;SDS011;49320;52.512;13.448;2023-06-04T03:56:54;3.58;;;1.38;;
63218;SDS011;49320;52.512;13.448;2023-06-04T03:59:20;3.03;;;1.40;;
63218;SDS011;49320;52.512;13.448;2023-06-04T04:01:47;1.73;;;1.02;;
63218;SDS011;49320;52.512;13.448;2023-06-04T04:04:14;3.72;;;1.73;;
63218;SDS011;49320;52.512;13.448;2023-06-04T04:06:41;2.92;;;1.30;;
63218;SDS011;49320;52.512;13.448;2023-06-04T04:09:08;3.97;;;2.03;;
63218;SDS011;49320;52.512;13.448;2023-06-04T04:11:35;1.55;;;1.23;;
63218;SDS011;49320;52.512;13.448;2023-06-04T04:14:02;3.42;;;1.50;;
63218;SDS011;49320;52.512;13.448;2023-06-04T04:16:28;5.63;;;2.13;;
63218;SDS011;49320;52.512;13.448;2023-06-04T04:18:55;4.72;;;1.45;;
63218;SDS011;49320;52.512;13.448;2023-06-04T04:21:22;2.55;;;1.42;;
63218;SDS011;49320;52.512;13.448;2023-06-04T04:23:49;1.92;;;1.30;;
63218;SDS011;49320;52.512;13.448;2023-06-04T04:26:17;2.58;;;1.48;;
63218;SDS011;49320;52.512;13.448;2023-06-04T04:28:44;1.98;;;1.30;;
63218;SDS011;49320;52.512;13.448;2023-06-04T04:31:11;2.47;;;1.52;;
63218;SDS011;49320;52.512;13.448;2023-06-04T04:33:38;2.25;;;1.30;;
63218;SDS011;49320;52.512;13.448;2023-06-04T04:36:06;2.70;;;1.40;;
63218;SDS011;49320;52.512;13.448;2023-06-04T04:38:39;2.10;;;1.33;;
63218;SDS011;49320;52.512;13.448;2023-06-04T04:41:06;3.92;;;1.40;;
63218;SDS011;49320;52.512;13.448;2023-06-04T04:43:35;2.72;;;1.50;;
63218;SDS011;49320;52.512;13.448;2023-06-04T04:46:03;2.65;;;1.40;;
63218;SDS011;49320;52.512;13.448;2023-06-04T04:48:31;1.95;;;1.30;;
63218;SDS011;49320;52.512;13.448;2023-06-04T04:50:59;2.65;;;1.40;;
63218;SDS011;49320;52.512;13.448;2023-06-04T04:53:26;2.30;;;1.27;;
63218;SDS011;49320;52.512;13.448;2023-06-04T04:55:53;1.75;;;1.52;;
63218;SDS011;49320;52.512;13.448;2023-06-04T04:58:20;2.03;;;1.40;;
63218;SDS011;49320;52.512;13.448;2023-06-04T05:00:46;3.88;;;1.60;;
63218;SDS011;49320;52.512;13.448;2023-06-04T05:03:14;2.28;;;1.40;;
63218;SDS011;49320;52.512;13.448;2023-06-04T05:05:41;2.03;;;1.20;;
63218;SDS011;49320;52.512;13.448;2023-06-04T05:08:08;1.60;;;1.30;;
63218;SDS011;49320;52.512;13.448;2023-06-04T05:10:35;1.67;;;1.25;;
63218;SDS011;49320;52.512;13.448;2023-06-04T05:13:02;1.92;;;1.48;;
63218;SDS011;49320;52.512;13.448;2023-06-04T05:15:31;3.05;;;1.40;;
63218;SDS011;49320;52.512;13.448;2023-06-04T05:17:58;2.55;;;1.35;;
63218;SDS011;49320;52.512;13.448;2023-06-04T05:20:27;2.83;;;1.38;;
63218;SDS011;49320;52.512;13.448;2023-06-04T05:22:54;1.75;;;1.05;;
63218;SDS011;49320;52.512;13.448;2023-06-04T05:25:21;1.90;;;1.20;;
63218;SDS011;49320;52.512;13.448;2023-06-04T05:27:49;1.80;;;1.30;;
63218;SDS011;49320;52.512;13.448;2023-06-04T05:30:16;2.22;;;1.33;;
63218;SDS011;49320;52.512;13.448;2023-06-04T05:32:43;2.70;;;1.40;;
63218;SDS011;49320;52.512;13.448;2023-06-04T05:35:10;2.38;;;1.38;;
63218;SDS011;49320;52.512;13.448;2023-06-04T05:37:37;2.90;;;1.48;;
63218;SDS011;49320;52.512;13.448;2023-06-04T05:40:06;2.67;;;1.38;;
63218;SDS011;49320;52.512;13.448;2023-06-04T05:42:35;2.20;;;1.58;;
63218;SDS011;49320;52.512;13.448;2023-06-04T05:45:02;2.55;;;1.58;;
63218;SDS011;49320;52.512;13.448;2023-06-04T05:47:31;3.42;;;1.55;;
63218;SDS011;49320;52.512;13.448;2023-06-04T05:49:58;2.15;;;1.45;;
63218;SDS011;49320;52.512;13.448;2023-06-04T05:52:25;1.77;;;1.13;;
63218;SDS011;49320;52.512;13.448;2023-06-04T05:54:52;2.42;;;1.20;;
63218;SDS011;49320;52.512;13.448;2023-06-04T05:57:19;3.00;;;1.17;;
63218;SDS011;49320;52.512;13.448;2023-06-04T05:59:47;1.77;;;1.20;;
63218;SDS011;49320;52.512;13.448;2023-06-04T06:02:14;1.55;;;1.08;;
63218;SDS011;49320;52.512;13.448;2023-06-04T06:04:41;2.30;;;1.30;;
63218;SDS011;49320;52.512;13.448;2023-06-04T06:07:08;2.40;;;1.25;;
63218;SDS011;49320;52.512;13.448;2023-06-04T06:09:35;1.20;;;1.10;;
63218;SDS011;49320;52.512;13.448;2023-06-04T06:12:03;2.78;;;1.08;;
63218;SDS011;49320;52.512;13.448;2023-06-04T06:14:31;2.97;;;1.08;;
63218;SDS011;49320;52.512;13.448;2023-06-04T06:16:58;1.88;;;1.10;;
63218;SDS011;49320;52.512;13.448;2023-06-04T06:19:26;1.98;;;1.40;;
63218;SDS011;49320;52.512;13.448;2023-06-04T06:21:53;2.80;;;1.40;;
63218;SDS011;49320;52.512;13.448;2023-06-04T06:24:20;2.65;;;1.40;;
63218;SDS011;49320;52.512;13.448;2023-06-04T06:26:47;2.25;;;1.10;;
63218;SDS011;49320;52.512;13.448;2023-06-04T06:29:14;3.38;;;1.30;;
63218;SDS011;49320;52.512;13.448;2023-06-04T06:31:40;2.05;;;1.15;;
63218;SDS011;49320;52.512;13.448;2023-06-04T06:34:07;2.38;;;1.30;;
63218;SDS011;49320;52.512;13.448;2023-06-04T06:36:34;1.45;;;1.00;;
63218;SDS011;49320;52.512;13.448;2023-06-04T06:39:01;1.45;;;1.00;;
63218;SDS011;49320;52.512;13.448;2023-06-04T06:41:28;2.03;;;1.10;;
63218;SDS011;49320;52.512;13.448;2023-06-04T06:43:57;2.22;;;1.00;;
63218;SDS011;49320;52.512;13.448;2023-06-04T06:46:24;2.00;;;1.05;;
63218;SDS011;49320;52.512;13.448;2023-06-04T06:48:51;2.40;;;1.20;;
63218;SDS011;49320;52.512;13.448;2023-06-04T06:51:18;1.17;;;0.90;;
63218;SDS011;49320;52.512;13.448;2023-06-04T06:53:45;1.15;;;1.05;;
63218;SDS011;49320;52.512;13.448;2023-06-04T06:56:13;0.98;;;0.70;;
63218;SDS011;49320;52.512;13.448;2023-06-04T06:58:41;1.67;;;0.80;;
63218;SDS011;49320;52.512;13.448;2023-06-04T07:01:08;1.10;;;1.00;;
63218;SDS011;49320;52.512;13.448;2023-06-04T07:03:35;1.73;;;0.90;;
63218;SDS011;49320;52.512;13.448;2023-06-04T07:06:02;1.85;;;0.85;;
63218;SDS011;49320;52.512;13.448;2023-06-04T07:08:29;0.88;;;0.80;;
63218;SDS011;49320;52.512;13.448;2023-06-04T07:10:56;1.63;;;1.00;;
63218;SDS011;49320;52.512;13.448;2023-06-04T07:13:24;0.95;;;0.70;;
63218;SDS011;49320;52.512;13.448;2023-06-04T07:15:51;3.03;;;1.00;;
63218;SDS011;49320;52.512;13.448;2023-06-04T07:18:17;1.30;;;0.90;;
63218;SDS011;49320;52.512;13.448;2023-06-04T07:20:44;2.35;;;1.00;;
63218;SDS011;49320;52.512;13.448;2023-06-04T07:23:11;3.33;;;0.93;;
63218;SDS011;49320;52.512;13.448;2023-06-04T07:25:38;2.55;;;1.00;;
63218;SDS011;49320;52.512;13.448;2023-06-04T07:28:05;4.57;;;1.23;;
63218;SDS011;49320;52.512;13.448;2023-06-04T07:30:32;2.50;;;0.98;;
63218;SDS011;49320;52.512;13.448;2023-06-04T07:32:59;1.98;;;0.80;;
63218;SDS011;49320;52.512;13.448;2023-06-04T07:35:26;2.72;;;0.80;;
63218;SDS011;49320;52.512;13.448;2023-06-04T07:37:53;3.33;;;0.75;;
63218;SDS011;49320;52.512;13.448;2023-06-04T07:40:20;1.38;;;0.85;;
63218;SDS011;49320;52.512;13.448;2023-06-04T07:42:47;5.63;;;1.00;;
63218;SDS011;49320;52.512;13.448;2023-06-04T07:45:14;1.55;;;0.75;;
63218;SDS011;49320;52.512;13.448;2023-06-04T07:47:42;1.02;;;0.70;;
63218;SDS011;49320;52.512;13.448;2023-06-04T07:50:10;1.13;;;0.88;;
63218;SDS011;49320;52.512;13.448;2023-06-04T07:52:37;2.75;;;0.80;;
63218;SDS011;49320;52.512;13.448;2023-06-04T07:55:03;1.00;;;0.80;;
63218;SDS011;49320;52.512;13.448;2023-06-04T07:57:31;2.72;;;0.68;;
63218;SDS011;49320;52.512;13.448;2023-06-04T07:59:58;2.25;;;0.70;;
63218;SDS011;49320;52.512;13.448;2023-06-04T08:02:26;2.72;;;0.73;;
63218;SDS011;49320;52.512;13.448;2023-06-04T08:04:53;0.93;;;0.68;;
63218;SDS011;49320;52.512;13.448;2023-06-04T08:07:20;2.10;;;0.73;;
63218;SDS011;49320;52.512;13.448;2023-06-04T08:09:47;1.10;;;0.70;;
63218;SDS011;49320;52.512;13.448;2023-06-04T08:12:14;1.05;;;0.60;;
63218;SDS011;49320;52.512;13.448;2023-06-04T08:14:42;1.60;;;0.70;;
63218;SDS011;49320;52.512;13.448;2023-06-04T08:17:09;1.02;;;0.80;;
63218;SDS011;49320;52.512;13.448;2023-06-04T08:19:36;5.82;;;1.70;;
63218;SDS011;49320;52.512;13.448;2023-06-04T08:22:03;3.45;;;0.73;;
63218;SDS011;49320;52.512;13.448;2023-06-04T08:24:31;0.43;;;0.43;;
63218;SDS011;49320;52.512;13.448;2023-06-04T08:26:58;2.17;;;0.70;;
63218;SDS011;49320;52.512;13.448;2023-06-04T08:29:24;0.63;;;0.50;;
63218;SDS011;49320;52.512;13.448;2023-06-04T08:31:51;1.35;;;0.50;;
63218;SDS011;49320;52.512;13.448;2023-06-04T08:34:18;0.77;;;0.70;;
63218;SDS011;49320;52.512;13.448;2023-06-04T08:36:46;0.80;;;0.60;;
63218;SDS011;49320;52.512;13.448;2023-06-04T08:39:13;2.80;;;0.70;;
63218;SDS011;49320;52.512;13.448;2023-06-04T08:41:45;0.93;;;0.70;;
63218;SDS011;49320;52.512;13.448;2023-06-04T08:44:18;1.40;;;0.90;;
63218;SDS011;49320;52.512;13.448;2023-06-04T08:46:45;2.90;;;1.00;;
63218;SDS011;49320;52.512;13.448;2023-06-04T08:49:19;1.00;;;0.80;;
63218;SDS011;49320;52.512;13.448;2023-06-04T08:51:48;0.90;;;0.68;;
63218;SDS011;49320;52.512;13.448;2023-06-04T08:54:15;1.52;;;0.70;;
63218;SDS011;49320;52.512;13.448;2023-06-04T08:56:42;1.35;;;0.80;;
63218;SDS011;49320;52.512;13.448;2023-06-04T08:59:11;0.68;;;0.65;;
63218;SDS011;49320;52.512;13.448;2023-06-04T09:01:40;1.15;;;0.70;;
63218;SDS011;49320;52.512;13.448;2023-06-04T09:04:10;0.82;;;0.70;;
63218;SDS011;49320;52.512;13.448;2023-06-04T09:06:39;0.98;;;0.80;;
63218;SDS011;49320;52.512;13.448;2023-06-04T09:09:08;2.22;;;0.80;;
63218;SDS011;49320;52.512;13.448;2023-06-04T09:11:44;0.80;;;0.60;;
63218;SDS011;49320;52.512;13.448;2023-06-04T09:14:17;1.58;;;0.80;;
63218;SDS011;49320;52.512;13.448;2023-06-04T09:16:51;1.45;;;0.85;;
63218;SDS011;49320;52.512;13.448;2023-06-04T09:19:22;1.65;;;0.95;;
63218;SDS011;49320;52.512;13.448;2023-06-04T09:21:53;1.60;;;1.00;;
63218;SDS011;49320;52.512;13.448;2023-06-04T09:24:24;3.10;;;1.00;;
63218;SDS011;49320;52.512;13.448;2023-06-04T09:27:10;1.95;;;0.85;;
63218;SDS011;49320;52.512;13.448;2023-06-04T09:29:52;2.38;;;0.80;;
63218;SDS011;49320;52.512;13.448;2023-06-04T09:32:25;2.80;;;0.60;;
63218;SDS011;49320;52.512;13.448;2023-06-04T09:34:56;1.17;;;0.88;;
63218;SDS011;49320;52.512;13.448;2023-06-04T09:37:42;1.80;;;0.80;;
63218;SDS011;49320;52.512;13.448;2023-06-04T09:40:18;2.42;;;0.75;;
63218;SDS011;49320;52.512;13.448;2023-06-04T09:42:47;1.25;;;0.70;;
63218;SDS011;49320;52.512;13.448;2023-06-04T09:45:29;1.38;;;0.82;;
63218;SDS011;49320;52.512;13.448;2023-06-04T09:47:58;1.17;;;0.90;;
63218;SDS011;49320;52.512;13.448;2023-06-04T09:50:26;3.40;;;1.17;;
63218;SDS011;49320;52.512;13.448;2023-06-04T09:52:57;1.40;;;0.70;;
63218;SDS011;49320;52.512;13.448;2023-06-04T09:55:24;1.20;;;0.70;;
63218;SDS011;49320;52.512;13.448;2023-06-04T09:57:51;1.20;;;0.70;;
63218;SDS011;49320;52.512;13.448;2023-06-04T10:00:20;1.10;;;0.75;;
63218;SDS011;49320;52.512;13.448;2023-06-04T10:02:56;1.73;;;0.88;;
63218;SDS011;49320;52.512;13.448;2023-06-04T10:05:25;2.15;;;0.73;;
63218;SDS011;49320;52.512;13.448;2023-06-04T10:07:52;1.25;;;0.75;;
63218;SDS011;49320;52.512;13.448;2023-06-04T10:10:25;0.82;;;0.73;;
63218;SDS011;49320;52.512;13.448;2023-06-04T10:13:00;1.80;;;0.98;;
63218;SDS011;49320;52.512;13.448;2023-06-04T10:15:33;1.23;;;0.90;;
63218;SDS011;49320;52.512;13.448;2023-06-04T10:18:02;4.60;;;0.88;;
63218;SDS011;49320;52.512;13.448;2023-06-04T10:20:30;1.25;;;0.70;;
63218;SDS011;49320;52.512;13.448;2023-06-04T10:22:58;1.30;;;0.90;;
63218;SDS011;49320;52.512;13.448;2023-06-04T10:25:26;0.90;;;0.70;;
63218;SDS011;49320;52.512;13.448;2023-06-04T10:27:54;3.05;;;0.82;;
63218;SDS011;49320;52.512;13.448;2023-06-04T10:30:22;1.45;;;0.98;;
63218;SDS011;49320;52.512;13.448;2023-06-04T10:32:49;1.48;;;0.70;;
63218;SDS011;49320;52.512;13.448;2023-06-04T10:35:17;1.40;;;0.85;;
63218;SDS011;49320;52.512;13.448;2023-06-04T10:37:43;1.23;;;0.82;;
63218;SDS011;49320;52.512;13.448;2023-06-04T10:40:15;0.75;;;0.60;;
63218;SDS011;49320;52.512;13.448;2023-06-04T10:42:42;0.77;;;0.52;;
63218;SDS011;49320;52.512;13.448;2023-06-04T10:45:10;0.55;;;0.55;;
63218;SDS011;49320;52.512;13.448;2023-06-04T10:47:38;1.52;;;0.88;;
63218;SDS011;49320;52.512;13.448;2023-06-04T10:50:11;2.10;;;0.82;;
63218;SDS011;49320;52.512;13.448;2023-06-04T10:52:52;0.85;;;0.68;;
63218;SDS011;49320;52.512;13.448;2023-06-04T10:55:20;0.98;;;0.70;;
63218;SDS011;49320;52.512;13.448;2023-06-04T10:57:54;0.90;;;0.60;;
63218;SDS011;49320;52.512;13.448;2023-06-04T11:00:35;0.63;;;0.57;;
63218;SDS011;49320;52.512;13.448;2023-06-04T11:03:09;3.75;;;1.02;;
63218;SDS011;49320;52.512;13.448;2023-06-04T11:05:40;0.80;;;0.70;;
63218;SDS011;49320;52.512;13.448;2023-06-04T11:08:11;1.00;;;0.70;;
63218;SDS011;49320;52.512;13.448;2023-06-04T11:10:42;0.85;;;0.85;;
63218;SDS011;49320;52.512;13.448;2023-06-04T11:13:10;1.60;;;0.73;;
63218;SDS011;49320;52.512;13.448;2023-06-04T11:15:39;1.35;;;0.77;;
63218;SDS011;49320;52.512;13.448;2023-06-04T11:18:13;1.25;;;0.82;;
63218;SDS011;49320;52.512;13.448;2023-06-04T11:20:41;2.10;;;0.93;;
63218;SDS011;49320;52.512;13.448;2023-06-04T11:23:11;1.15;;;0.82;;
63218;SDS011;49320;52.512;13.448;2023-06-04T11:25:39;2.15;;;1.00;;
63218;SDS011;49320;52.512;13.448;2023-06-04T11:28:08;1.20;;;1.00;;
63218;SDS011;49320;52.512;13.448;2023-06-04T11:30:55;1.10;;;0.90;;
63218;SDS011;49320;52.512;13.448;2023-06-04T11:33:30;1.35;;;0.80;;
63218;SDS011;49320;52.512;13.448;2023-06-04T11:35:57;1.50;;;0.88;;
63218;SDS011;49320;52.512;13.448;2023-06-04T11:38:23;2.50;;;1.05;;
63218;SDS011;49320;52.512;13.448;2023-06-04T11:40:56;1.45;;;0.73;;
63218;SDS011;49320;52.512;13.448;2023-06-04T11:43:25;1.23;;;1.08;;
63218;SDS011;49320;52.512;13.448;2023-06-04T11:45:53;1.45;;;0.82;;
63218;SDS011;49320;52.512;13.448;2023-06-04T11:48:21;1.75;;;0.80;;
63218;SDS011;49320;52.512;13.448;2023-06-04T11:50:48;1.30;;;0.95;;
63218;SDS011;49320;52.512;13.448;2023-06-04T11:53:15;1.83;;;1.00;;
63218;SDS011;49320;52.512;13.448;2023-06-04T11:55:43;2.05;;;1.10;;
63218;SDS011;49320;52.512;13.448;2023-06-04T11:58:10;1.98;;;0.80;;
63218;SDS011;49320;52.512;13.448;2023-06-04T12:00:37;1.10;;;0.88;;
63218;SDS011;49320;52.512;13.448;2023-06-04T12:03:04;2.70;;;0.90;;
63218;SDS011;49320;52.512;13.448;2023-06-04T12:05:31;1.02;;;0.90;;
63218;SDS011;49320;52.512;13.448;2023-06-04T12:08:05;2.15;;;1.17;;
63218;SDS011;49320;52.512;13.448;2023-06-04T12:10:38;1.77;;;0.98;;
63218;SDS011;49320;52.512;13.448;2023-06-04T12:13:08;2.17;;;0.95;;
63218;SDS011;49320;52.512;13.448;2023-06-04T12:15:36;1.65;;;0.80;;
63218;SDS011;49320;52.512;13.448;2023-06-04T12:18:03;1.20;;;0.95;;
63218;SDS011;49320;52.512;13.448;2023-06-04T12:20:33;1.00;;;0.80;;
63218;SDS011;49320;52.512;13.448;2023-06-04T12:23:05;1.15;;;0.68;;
63218;SDS011;49320;52.512;13.448;2023-06-04T12:25:34;1.33;;;0.90;;
63218;SDS011;49320;52.512;13.448;2023-06-04T12:28:03;0.93;;;0.80;;
63218;SDS011;49320;52.512;13.448;2023-06-04T12:30:40;1.38;;;0.90;;
63218;SDS011;49320;52.512;13.448;2023-06-04T12:33:07;2.28;;;0.90;;
63218;SDS011;49320;52.512;13.448;2023-06-04T12:35:36;1.05;;;0.70;;
63218;SDS011;49320;52.512;13.448;2023-06-04T12:38:03;1.67;;;0.98;;
63218;SDS011;49320;52.512;13.448;2023-06-04T12:40:31;1.15;;;0.95;;
63218;SDS011;49320;52.512;13.448;2023-06-04T12:42:58;0.93;;;0.70;;
63218;SDS011;49320;52.512;13.448;2023-06-04T12:45:26;1.00;;;0.80;;
63218;SDS011;49320;52.512;13.448;2023-06-04T12:47:53;1.08;;;0.80;;
63218;SDS011;49320;52.512;13.448;2023-06-04T12:50:19;1.42;;;0.70;;
63218;SDS011;49320;52.512;13.448;2023-06-04T12:52:48;1.60;;;1.00;;
63218;SDS011;49320;52.512;13.448;2023-06-04T12:55:15;1.67;;;0.90;;
63218;SDS011;49320;52.512;13.448;2023-06-04T12:57:42;0.88;;;0.70;;
63218;SDS011;49320;52.512;13.448;2023-06-04T13:00:11;2.50;;;1.00;;
63218;SDS011;49320;52.512;13.448;2023-06-04T13:02:38;1.38;;;1.00;;
63218;SDS011;49320;52.512;13.448;2023-06-04T13:05:05;1.25;;;0.77;;
63218;SDS011;49320;52.512;13.448;2023-06-04T13:07:32;0.80;;;0.80;;
63218;SDS011;49320;52.512;13.448;2023-06-04T13:09:59;2.60;;;1.08;;
63218;SDS011;49320;52.512;13.448;2023-06-04T13:12:26;1.33;;;0.70;;
63218;SDS011;49320;52.512;13.448;2023-06-04T13:14:53;1.27;;;1.15;;
63218;SDS011;49320;52.512;13.448;2023-06-04T13:17:21;2.13;;;0.95;;
63218;SDS011;49320;52.512;13.448;2023-06-04T13:19:48;1.17;;;1.00;;
63218;SDS011;49320;52.512;13.448;2023-06-04T13:22:16;1.50;;;0.90;;
63218;SDS011;49320;52.512;13.448;2023-06-04T13:24:43;1.20;;;0.95;;
63218;SDS011;49320;52.512;13.448;2023-06-04T13:27:10;1.23;;;0.90;;
63218;SDS011;49320;52.512;13.448;2023-06-04T13:29:37;2.78;;;1.10;;
63218;SDS011;49320;52.512;13.448;2023-06-04T13:32:03;1.52;;;0.90;;
63218;SDS011;49320;52.512;13.448;2023-06-04T13:34:31;2.15;;;1.00;;
63218;SDS011;49320;52.512;13.448;2023-06-04T13:36:58;1.50;;;1.00;;
63218;SDS011;49320;52.512;13.448;2023-06-04T13:39:25;1.52;;;1.23;;
63218;SDS011;49320;52.512;13.448;2023-06-04T13:41:52;1.10;;;1.00;;
63218;SDS011;49320;52.512;13.448;2023-06-04T13:44:19;1.00;;;0.90;;
63218;SDS011;49320;52.512;13.448;2023-06-04T13:46:52;1.20;;;1.08;;
63218;SDS011;49320;52.512;13.448;2023-06-04T13:49:19;2.97;;;0.85;;
63218;SDS011;49320;52.512;13.448;2023-06-04T13:51:46;1.55;;;0.98;;
63218;SDS011;49320;52.512;13.448;2023-06-04T13:54:13;1.65;;;0.80;;
63218;SDS011;49320;52.512;13.448;2023-06-04T13:56:40;3.60;;;1.33;;
63218;SDS011;49320;52.512;13.448;2023-06-04T13:59:07;1.38;;;0.95;;
63218;SDS011;49320;52.512;13.448;2023-06-04T14:01:34;1.42;;;0.90;;
63218;SDS011;49320;52.512;13.448;2023-06-04T14:04:01;1.70;;;0.88;;
63218;SDS011;49320;52.512;13.448;2023-06-04T14:06:32;2.10;;;0.88;;
63218;SDS011;49320;52.512;13.448;2023-06-04T14:09:01;1.33;;;0.90;;
63218;SDS011;49320;52.512;13.448;2023-06-04T14:11:28;1.05;;;0.88;;
63218;SDS011;49320;52.512;13.448;2023-06-04T14:13:56;1.42;;;0.77;;
63218;SDS011;49320;52.512;13.448;2023-06-04T14:16:22;2.15;;;1.10;;
63218;SDS011;49320;52.512;13.448;2023-06-04T14:18:49;1.88;;;1.25;;
63218;SDS011;49320;52.512;13.448;2023-06-04T14:21:16;1.83;;;1.20;;
63218;SDS011;49320;52.512;13.448;2023-06-04T14:23:43;4.20;;;1.33;;
63218;SDS011;49320;52.512;13.448;2023-06-04T14:26:10;2.53;;;1.20;;
63218;SDS011;49320;52.512;13.448;2023-06-04T14:28:38;1.73;;;1.00;;
63218;SDS011;49320;52.512;13.448;2023-06-04T14:31:05;1.20;;;0.80;;
63218;SDS011;49320;52.512;13.448;2023-06-04T14:33:32;1.38;;;1.00;;
63218;SDS011;49320;52.512;13.448;2023-06-04T14:36:01;1.83;;;0.90;;
63218;SDS011;49320;52.512;13.448;2023-06-04T14:38:28;1.75;;;1.10;;
63218;SDS011;49320;52.512;13.448;2023-06-04T14:40:55;2.10;;;1.33;;
63218;SDS011;49320;52.512;13.448;2023-06-04T14:43:22;2.80;;;1.13;;
63218;SDS011;49320;52.512;13.448;2023-06-04T14:45:49;2.53;;;1.13;;
63218;SDS011;49320;52.512;13.448;2023-06-04T14:48:16;1.50;;;0.95;;
63218;SDS011;49320;52.512;13.448;2023-06-04T14:50:43;1.38;;;1.17;;